Tiempo atmosférico en la estación meteorológica de Vigo Aeropuerto, Pontevedra (261 m.)



Fecha
DESCASC
Temp. máxima en grados centígrados (hora)
DESCASC
Temp. mínima en grados centígrados (hora)
DESCASC
Temp. media en grados centígrados
DESCASC
Racha de viento máxima en m/sg (hora)
DESCASC
Velocidad máxima media en intervalos de 10 minutos(hora)
DESCASC
Precipitaciones diarias en mm
DESCASC
Precipitaciones de 00:00 a 06:00 en mm
DESCASC
Precipitaciones de 06:00 a 12:00 en mm
DESCASC
Precipitaciones de 12:00 a 18:00 en mm
DESCASC
Precipitaciones de 18:00 a 24:00 en mm
DESCASC
17-10-2019 15.9 (03:50) 12.3 (23:59) 14.1 10.83 (05:30) 6.67 (05:30) 4.1 2.2 0.9 1 0
16-10-2019 15.8 (22:30) 13.3 (03:00) 14.6 15 (16:20) 8.33 (13:40) 35.9 0.9 2.5 17.3 15.2
15-10-2019 15.4 (16:20) 9.4 (06:00) 12.4 10.83 (18:50) 6.94 (23:10) 0.5 0 0.3 0.2 0
14-10-2019 14.8 (12:20) 9.9 (22:50) 12.3 12.5 (18:00) 6.39 (12:30) 17.4 4.4 8.8 3.7 0.5
13-10-2019 16.7 (07:40) 12 (00:00) 14.4 15 (07:30) 9.17 (04:50) 20.2 3 4.9 1.3 11
12-10-2019 20.2 (15:30) 12.6 (00:00) 16.4 13.89 (16:30) 10 (16:30) 0 0 0 0 0
10-10-2019 23.3 (16:20) 10.3 (00:00) 16.8 6.67 (00:10) 4.72 (00:10) 0 0 0 0 0
09-10-2019 19.1 (16:50) 10.5 (00:00) 14.8 9.72 (16:30) 6.67 (16:20) 0 0 0 0 0
08-10-2019 18.9 (13:10) 12.8 (00:00) 15.8 10.83 (19:40) 6.94 (19:40) 1.7 0 0.4 1.3 0
07-10-2019 23.3 (15:40) 12.5 (00:00) 17.9 7.78 (21:10) 4.72 (16:10) 0 0 0 0 0
06-10-2019 22.7 (13:40) 13.3 (00:00) 18 7.78 (19:10) 5.28 (19:10) 0 0 0 0 0
05-10-2019 19.6 (17:10) 12.8 (01:10) 16.2 8.89 (21:00) 4.72 (17:50) 0 0 0 0 0
04-10-2019 20.6 (13:00) 13.3 (00:00) 17 7.78 (20:10) 4.44 (20:10) 0.4 0.1 0.3 0 0
03-10-2019 19.9 (16:40) 10.4 (00:00) 15.1 6.67 (10:10) 4.72 (10:10) 3 0 0 0 3
02-10-2019 20.3 (15:40) 13.1 (00:00) 16.7 7.22 (18:10) 4.72 (18:20) 0 0 0 0 0
01-10-2019 20.1 (14:20) 15.8 (00:00) 18 8.33 (06:40) 4.72 (14:20) 3 1.7 1.2 0.1 0
30-09-2019 21.2 (13:20) 17.5 (00:00) 19.4 9.17 (16:20) 6.11 (18:10) 2 1.3 0.7 0 0
29-09-2019 18.1 (18:20) 11.8 (00:00) 15 8.89 (09:20) 5.83 (09:20) 14.9 0 0 2.8 12.1
28-09-2019 21.4 (14:30) 9.8 (00:00) 15.6 8.33 (16:40) 5.56 (16:40) 0 0 0 0 0
27-09-2019 19.1 (16:40) 13.3 (00:00) 16.2 7.22 (13:50) 4.72 (05:20) 2.9 0 2.8 0.1 0
26-09-2019 20.9 (14:50) 14.3 (00:00) 17.6 9.17 (16:50) 6.67 (16:50) 0 0 0 0 0
25-09-2019 19.9 (15:50) 14.1 (00:00) 17 8.33 (17:10) 6.11 (18:40) 0.8 0 0.8 0 0
24-09-2019 20.1 (15:40) 15.3 (00:00) 17.7 12.78 (00:20) 8.61 (00:10) 12.9 11.8 1.1 0 0
23-09-2019 -- (--) -- (--) -- -- (--) -- (--) -- -- -- 0 0
22-09-2019 -- (--) -- (--) -- -- (--) -- (--) -- 0.7 0 -- --
21-09-2019 17.6 (05:50) 15.3 (00:00) 16.5 14.44 (12:10) 10.28 (12:10) 14.8 0 5 9.7 0.1
20-09-2019 21.4 (15:50) 14.8 (00:00) 18.1 7.78 (17:00) 3.89 (16:30) 0 0 0 0 0

Gráficas

Temp. máximas Temp. mínimas Temp. medias Precipitaciones Rachas de viento máximas Velocidades máximas media en intervalos de 10 minutos

Datos horarios

Fecha y hora oficial Temperatura (ºC) Velocidad del viento (km/h) Dirección del viento Racha (km/h) Dirección de racha Precipitación (mm) Presión (hPa) Tendencia (hPa) Humedad (%)
2019-10-19 23:00:00 10.4 10 Norte 28 Norte 0 977.1 2.1 100
2019-10-19 22:00:00 10.7 15 Norte 32 Norte 0.4 976.4 2 100
2019-10-19 21:00:00 10.8 20 Norte 33 Norte 0 975.8 2 98
2019-10-19 20:00:00 10.8 21 Norte 37 Norte 2.6 975 1.3 100
2019-10-19 19:00:00 11 22 Norte 37 Norte 1.7 974.4 1.2 100
2019-10-19 18:00:00 13 10 Norte 17 Noroeste 0 973.8 0.3 92
2019-10-19 17:00:00 12.7 7 Norte 21 Norte 0 973.7 -1.2 98
2019-10-19 16:00:00 13 10 Oeste 30 Oeste 0 973.2 -2.7 90
2019-10-19 15:00:00 12.7 5 Sudeste 18 Sur 0 973.5 -3 97
2019-10-19 14:00:00 11.4 10 Nordeste 21 Nordeste 1.4 974.9 -2.1 96
2019-10-19 13:00:00 10.8 8 Nordeste 17 Nordeste 1.7 975.9 -0.8 100
2019-10-19 12:00:00 11.6 10 Nordeste 17 Norte 3.4 976.5 0 100
2019-10-19 11:00:00 11.8 10 Norte 15 Norte 7 977 0.2 100
2019-10-19 10:00:00 11.8 7 Nordeste 9 Nordeste 10.6 976.7 -0.3 100
2019-10-19 09:00:00 12 0 Calma 8 Nordeste 4.4 976.5 -1.5 100
2019-10-19 08:00:00 12.2 3 Este 8 Este 3 976.8 -1.6 100
2019-10-19 07:00:00 12.2 3 Nordeste 5 Noroeste 1.6 977 -2.3 100
2019-10-19 06:00:00 12.4 4 Norte 11 Noroeste 3.7 978 -1.7 100
2019-10-19 05:00:00 12.9 4 Norte 17 Noroeste 2.8 978.4 -1.7 100
2019-10-19 04:00:00 13.4 7 Oeste 18 Oeste 1.3 979.3 -1.5 100
2019-10-19 03:00:00 13.6 10 Sudoeste 32 Sudoeste 3 979.7 -1.4 100
2019-10-19 02:00:00 13.7 15 Sur 30 Sur 1.2 980.1 -1.5 100
2019-10-19 01:00:00 13.7 17 Sur 26 Sur 3.4 980.8 -1.3 100
2019-10-19 00:00:00 13.6 17 Sur 30 Sur 1.4 981.1 -1.6 100
2019-10-18 23:00:00 13.5 14 Sur 26 Sur 0.5 981.6 -1.4 100
2019-10-18 22:00:00 13.6 16 Sur 26 Sur 0.4 982.1 -1.3 100
2019-10-18 21:00:00 13.7 12 Sur 26 Sudoeste 0.2 982.7 -1.2 100
2019-10-18 20:00:00 14.3 18 Sur 24 Sur 0 983 -1.3 97
2019-10-18 19:00:00 14.5 16 Sur 24 Sur 0 983.4 -1.5 93
2019-10-18 18:00:00 15.6 12 Sur 22 Sur 0 983.9 -1.6 85
2019-10-18 17:00:00 15.8 11 Sur 22 Sur 0 984.3 -2 87
2019-10-18 16:00:00 16.1 12 Sur 26 Sur 0 984.9 -2 89
2019-10-18 15:00:00 16.7 14 Sur 24 Sur 0 985.5 -1.7 83
2019-10-18 14:00:00 16 8 Sur 21 Sur 0 986.3 -1 92
2019-10-18 13:00:00 15 14 Sur 22 Sur 0 986.9 -0.2 95
2019-10-18 12:00:00 13.8 13 Sur 22 Sur 0 987.2 0.5 100
2019-10-18 11:00:00 12.9 13 Sur 21 Sur 0 987.3 0.4 100
2019-10-18 10:00:00 12.5 11 Sur 17 Sur 0 987.1 0.4 100
2019-10-18 09:00:00 12.2 7 Sudoeste 11 Sur 0.2 986.7 -0.2 100
2019-10-18 08:00:00 12.2 8 Sudoeste 17 Sur 0.1 986.9 -0.1 100
2019-10-18 07:00:00 12.1 11 Sur 18 Sur 0 986.7 -0.4 100
2019-10-18 06:00:00 12 11 Sudoeste 17 Sudoeste 0 986.9 -0.2 100
2019-10-18 05:00:00 12.1 8 Sudoeste 11 Sur 0 987 0.2 100
2019-10-18 04:00:00 12.1 7 Sudoeste 11 Sur 0 987.1 0.1 100
2019-10-18 03:00:00 12.3 7 Sur 15 Sudeste 0 987.1 -0.3 100
2019-10-18 02:00:00 12.2 11 Sur 15 Sur 0 986.8 -0.3 100
2019-10-18 01:00:00 12.3 10 Sur 15 Sudoeste 0 987 0.2 100
2019-10-18 00:00:00 12.3 10 Sudoeste -- -- -- 987.4 0.9 100
2019-10-17 23:00:00 12.5 9 Sudoeste 13 Sur 0 987.1 1 100
2019-10-17 22:00:00 12.8 12 Sudoeste 17 Sudoeste 0 986.8 0.8 100
2019-10-17 21:00:00 12.9 6 Sur 9 Sur 0 986.5 0.7 100
2019-10-17 20:00:00 13.1 4 Nordeste 11 Noroeste 0 986.1 0.3 100
2019-10-17 19:00:00 13.6 0 Calma 17 Noroeste 0 986 -0.2 99
2019-10-17 18:00:00 13.8 9 Noroeste 15 Noroeste 0 985.8 -0.6 94
2019-10-17 17:00:00 13.8 6 Noroeste 26 Oeste 0 985.8 -0.9 95
2019-10-17 16:00:00 14 9 Noroeste 21 Oeste 0.1 986.2 -0.5 98
2019-10-17 15:00:00 14 7 Oeste 22 Oeste 0.1 986.4 -0.2 100
2019-10-17 14:00:00 14.1 10 Sudoeste 21 Sudoeste 0.2 986.7 0.3 100
2019-10-17 13:00:00 14.2 10 Sudoeste 18 Oeste 0.6 986.7 0.7 100
2019-10-17 12:00:00 14.2 7 Oeste 17 Oeste 0.6 986.6 1.4 100
2019-10-17 11:00:00 14.3 9 Sur 13 Sudoeste 0 986.4 1.6 99
2019-10-17 10:00:00 13.9 6 Sudoeste 13 Sudoeste 0 986 1.8 100
2019-10-17 09:00:00 13.6 6 Sudoeste 13 Oeste 0 985.2 1.6 100
2019-10-17 08:00:00 14.5 3 Sur 13 Sudoeste 0 984.8 1.5 100
2019-10-17 07:00:00 14.7 10 Sudoeste 30 Sudoeste 0.3 984.2 0.7 100
2019-10-17 06:00:00 15.1 15 Sudoeste 39 Sudoeste 1.2 983.6 0.1 100
2019-10-17 05:00:00 15.6 10 Sur 18 Sudoeste 0.3 983.3 0 100
2019-10-17 04:00:00 15.8 11 Sudoeste 22 Sudoeste 0 983.5 0.3 100
2019-10-17 03:00:00 15.6 10 Sur 15 Sur 0.1 983.5 0.3 100
2019-10-17 02:00:00 15.5 7 Sur 24 Sur 0.2 983.3 0.6 100
2019-10-17 01:00:00 15.4 17 Sur 30 Sur 0.4 983.2 0.9 100
2019-10-17 00:00:00 15.5 21 Sur 35 Sur 2.1 983.2 0.9 100
2019-10-16 23:00:00 15.8 13 Sur 35 Sur 1.4 982.7 0.4 100
2019-10-16 22:00:00 15.6 23 Sur 39 Sur 0.7 982.3 -0.2 100
2019-10-16 21:00:00 15.3 19 Sur 41 Sur 6.2 982.3 -0.4 100
2019-10-16 20:00:00 14.7 26 Sur 48 Sur 3.8 982.3 -0.7 100
2019-10-16 19:00:00 14.7 27 Sur 46 Sur 1 982.5 -0.9 100
2019-10-16 18:00:00 14.3 28 Sur 52 Sur 3.9 982.7 -0.8 100
2019-10-16 17:00:00 14.2 26 Sur 54 Sur 1.3 983 -1 100
2019-10-16 16:00:00 14.5 26 Sur 46 Sur 3.6 983.4 -1.3 100
2019-10-16 15:00:00 14.3 27 Sur 50 Sur 7 983.5 -1.7 100
2019-10-16 14:00:00 14.5 28 Sur 48 Sur 1.5 984 -1.2 100
2019-10-16 13:00:00 14.4 30 Sur 50 Sur 0 984.7 -0.6 100
2019-10-16 12:00:00 13.9 28 Sur 45 Sur 0.2 985.2 0.1 100
2019-10-16 11:00:00 13.7 23 Sur 35 Sur 1.2 985.2 -0.2 100
2019-10-16 10:00:00 13.8 17 Sur 33 Sur 0.8 985.3 0 100
2019-10-16 09:00:00 14.2 24 Sur 42 Sur 0 985.1 -0.5 99
2019-10-16 08:00:00 14.2 27 Sur 37 Sur 0 985.4 -0.6 99
2019-10-16 07:00:00 14.2 25 Sur 37 Sur 0.3 985.3 -0.9 98
2019-10-16 06:00:00 14.2 23 Sudoeste 37 Sur 0 985.6 -1.1 99
2019-10-16 05:00:00 13.8 22 Sur 32 Sur 0.1 986 -1.1 100
2019-10-16 04:00:00 13.4 20 Sur 33 Sur 0.3 986.2 -1.2 100
2019-10-16 03:00:00 13.4 25 Sur 37 Sur 0.4 986.7 -0.8 100
2019-10-16 02:00:00 13.5 24 Sur 33 Sur 0.1 987.1 -0.3 100
2019-10-16 01:00:00 13.6 22 Sur 35 Sur 0 987.4 0.1 100
2019-10-16 00:00:00 13.8 22 Sur 33 Sur 0 987.5 -0.3 97
2019-10-15 23:00:00 14 23 Sur 32 Sur 0 987.4 -0.4 95
2019-10-15 22:00:00 13.6 18 Sur 30 Sur 0 987.3 -0.5 97
2019-10-15 21:00:00 13.8 19 Sur 33 Sur 0 987.8 0.1 95
2019-10-15 20:00:00 14.1 22 Sur 33 Sur 0 987.8 -0.2 93
2019-10-15 19:00:00 14.3 18 Sur 39 Sur 0 987.8 -0.4 91
2019-10-15 18:00:00 15.1 22 Sur 37 Sur 0 987.7 -1 87
2019-10-15 17:00:00 15.1 17 Sur 33 Sur 0 988 -1 84
2019-10-15 16:00:00 15 18 Sur 30 Sur 0 988.2 -1.2 92
2019-10-15 15:00:00 14.2 15 Sur 28 Sur 0 988.7 -0.8 94
2019-10-15 14:00:00 12.8 14 Sur 35 Sur 0.2 989 -0.8 95
2019-10-15 13:00:00 12.3 15 Sur 28 Sur 0 989.4 0.1 100
2019-10-15 12:00:00 11.6 13 Sur 22 Sur 0.1 989.5 0.7 100
2019-10-15 11:00:00 11.4 15 Sur 22 Sur 0 989.8 1 100
2019-10-15 10:00:00 10.4 9 Sur 18 Sur 0.2 989.3 0.5 100
2019-10-15 09:00:00 9.9 13 Sur 26 Sur 0 988.8 0 100
2019-10-15 08:00:00 9.7 13 Sur 21 Sur 0 988.8 0.2 100
2019-10-15 07:00:00 9.7 8 Sudoeste 18 Sur 0 988.8 0 100
2019-10-15 06:00:00 9.4 11 Sudoeste 18 Sur 0 988.8 0 100
2019-10-15 05:00:00 9.6 13 Sudoeste 17 Sur 0 988.6 -0.2 100
2019-10-15 04:00:00 9.9 10 Sur 22 Sur 0 988.8 0.2 100
2019-10-15 03:00:00 10.3 13 Sur 18 Sur 0 988.8 0.5 100
2019-10-15 02:00:00 10 9 Sudoeste 15 Sur 0 988.8 0.8 100
2019-10-15 01:00:00 10.4 9 Sudoeste 13 Sudoeste 0 988.6 1.4 99
2019-10-15 00:00:00 10.5 9 Sur 17 Sur 0 988.3 1.4 94
2019-10-14 23:00:00 10 6 Oeste -- -- 0 988 1.8 98
2019-10-14 22:00:00 11 6 Oeste 28 Sudoeste 0 987.2 1.8 90
2019-10-14 21:00:00 12.1 7 Oeste 15 Oeste 0 986.9 2.1 84
2019-10-14 20:00:00 12.4 5 Oeste 18 Oeste 0 986.2 2.6 80
2019-10-14 19:00:00 12.5 4 Nordeste 28 Oeste 0.5 985.4 2.7 88
2019-10-14 18:00:00 12.1 22 Oeste 45 Oeste 1 984.8 2.3 77
2019-10-14 17:00:00 14.6 20 Oeste 35 Oeste 0 983.6 1.7 61
2019-10-14 16:00:00 12.9 10 Sudoeste 42 Oeste 0.6 982.7 1.8 82
2019-10-14 15:00:00 14.3 17 Oeste 33 Oeste 0 982.5 2.7 77
2019-10-14 14:00:00 13.1 15 Noroeste 28 Oeste 0.8 981.9 2.8 83
2019-10-14 13:00:00 12.1 7 Oeste 41 Oeste 1.3 980.9 2.3 93
2019-10-14 12:00:00 12.8 12 Sur 24 Sur 0 979.8 2.2 100
2019-10-14 11:00:00 12 12 Sur 18 Sur 0.3 979.1 2.3 100
2019-10-14 10:00:00 11.7 6 Sur 24 Sur 3.7 978.6 1.7 100
2019-10-14 09:00:00 11.6 14 Sur 32 Sur 4.7 977.6 0.2 100
2019-10-14 08:00:00 11.7 19 Sur 28 Sur 0.1 976.8 -0.5 100
2019-10-14 07:00:00 11.7 13 Sur 26 Sur 0 976.9 -1 100
2019-10-14 06:00:00 11.8 14 Sur 24 Sur 0 977.4 -1.6 100
2019-10-14 05:00:00 11.8 8 Sur 24 Sur 0 977.3 -1.8 100
2019-10-14 04:00:00 11.9 10 Sur 18 Sur 0.2 977.9 -2 100
2019-10-14 03:00:00 11.9 13 Sur 22 Sur 1 979 -1 100
2019-10-14 02:00:00 12.2 10 Sur 15 Sur 1.5 979.1 -1 100
2019-10-14 01:00:00 12.2 5 Sur 11 Sur 1.7 979.9 -0.7 100
2019-10-14 00:00:00 12.2 5 Sudoeste 9 Sur 2.3 980 -0.5 100
2019-10-13 23:00:00 12.4 5 Sudeste 8 Sur 2.2 980.1 0 100
2019-10-13 22:00:00 12.5 0 Calma 22 Sudoeste 3 980.6 0.6 100
2019-10-13 21:00:00 12.9 10 Oeste 28 Oeste 1.4 980.5 0.2 97
2019-10-13 20:00:00 13.2 12 Oeste 26 Oeste 1.3 980.1 -0.4 99
2019-10-13 19:00:00 14 12 Oeste 22 Oeste 0.8 980 -0.8 100
2019-10-13 18:00:00 14.8 14 Oeste 22 Oeste 0.3 980.3 -0.6 99
2019-10-13 17:00:00 15.8 12 Oeste 18 Sudoeste 0.8 980.5 -0.9 98
2019-10-13 16:00:00 15.9 10 Sudoeste 17 Oeste 0.2 980.8 -0.8 96
2019-10-13 15:00:00 16.2 11 Oeste 18 Oeste 0 980.9 -0.8 95
2019-10-13 14:00:00 16.3 4 Sudoeste 9 Sudoeste 0 981.4 0.1 93
2019-10-13 13:00:00 16.2 4 Sudoeste 11 Sudoeste 0 981.6 1 90
2019-10-13 12:00:00 15.6 5 Sudoeste 24 Oeste 0 981.7 1.9 91
2019-10-13 11:00:00 14.8 8 Sudoeste 18 Sudoeste 0 981.3 2.3 97
2019-10-13 10:00:00 14.6 10 Sudoeste 21 Sudoeste 0 980.6 2.5 100
2019-10-13 09:00:00 14.6 10 Oeste 35 Sudoeste 0.4 979.8 2.6 100
2019-10-13 08:00:00 16.5 23 Sudoeste 54 Sudoeste 0 979 1.3 96
2019-10-13 07:00:00 15.7 22 Sur 46 Sur 4.5 978.1 -0.3 100
2019-10-13 06:00:00 15.3 28 Sur 46 Sur 2.2 977.2 -2 100
2019-10-13 05:00:00 15.5 32 Sur 52 Sur 0.8 977.7 -2 100
2019-10-13 04:00:00 16.3 25 Sur 45 Sur 0 978.4 -1.4 91
2019-10-13 03:00:00 16.1 26 Sur 42 Sur 0 979.2 -0.9 90
2019-10-13 02:00:00 16.2 27 Sur 42 Sur 0 979.7 -0.5 89
2019-10-13 01:00:00 16.6 23 Sur 42 Sur 0 979.8 -0.7 84
2019-10-13 00:00:00 16.3 19 Sur 33 Sur 0 980.1 -0.5 83
2019-10-12 23:00:00 16.5 19 Sur 32 Sur 0 980.2 -0.5 82
2019-10-12 22:00:00 16.1 19 Sur 28 Sur 0 980.5 -0.4 87
2019-10-12 21:00:00 16 16 Sur 28 Sur 0 980.6 -0.1 87
2019-10-12 20:00:00 17.2 16 Sur 32 Sur 0 980.7 -0.1 83
2019-10-12 19:00:00 18.2 23 Sur 45 Sudoeste 0 980.9 -0.1 75
2019-10-12 18:00:00 19.4 28 Sur 48 Sur 0 980.7 -0.8 71
2019-10-12 17:00:00 19.7 24 Sur 50 Sur 0 980.8 -1.3 75
2019-10-12 16:00:00 19.7 24 Sur 39 Sur 0 981 -1.4 78
2019-10-12 15:00:00 18.8 19 Sur 28 Sur 0 981.5 -1.3 81
2019-10-12 14:00:00 18.5 16 Sur 32 Sur 0 982.1 -0.7 82
2019-10-12 13:00:00 17.7 14 Sur 18 Sur 0 982.4 -0.4 81
2019-10-12 12:00:00 16.8 12 Sur 17 Sur 0 982.8 0.3 83
2019-10-12 11:00:00 15.9 8 Sur 15 Sur 0 982.8 0.2 88
2019-10-12 10:00:00 15.1 9 Sur 13 Sur 0 982.8 0.2 90
2019-10-12 09:00:00 14.7 8 Sur 11 Sudoeste 0 982.5 -0.4 92
2019-10-12 08:00:00 14.8 9 Sur 13 Sudoeste 0 982.6 -0.3 91
2019-10-12 07:00:00 14.5 11 Sur 13 Sur 0 982.6 -1 93
2019-10-12 06:00:00 14.3 12 Sur 17 Sur 0 982.9 -1.3 94
2019-10-12 05:00:00 14.2 11 Sur 15 Sur 0 982.9 -1.7 94
2019-10-12 04:00:00 14.5 10 Sur 13 Sur 0 983.6 -1.5 92
2019-10-12 03:00:00 13.7 4 Sudeste -- -- 0 984.2 -0.9 97
2019-10-12 02:00:00 12.9 6 Sudoeste 11 Oeste 0 984.6 -0.7 97
2019-10-12 01:00:00 13.8 7 Oeste 13 Sudoeste 0 985.1 -0.2 94
2019-10-12 00:00:00 12.8 3 Oeste 13 Oeste 0 985.1 0 97
2019-10-11 23:00:00 13.3 3 Noroeste 13 Oeste 0 985.3 0.2 95
2019-10-11 22:00:00 14.3 8 Oeste 32 Oeste 0 985.3 0.2 94
2019-10-11 21:00:00 14.8 12 Oeste 22 Sudoeste 0 985.1 -0.4 92
2019-10-11 20:00:00 15.8 15 Oeste 22 Oeste 0 985.1 -0.5 86
2019-10-11 19:00:00 17.5 11 Oeste 22 Oeste 0 985.1 -0.7 76
2019-10-11 18:00:00 18.6 14 Oeste 24 Sudoeste 0 985.5 -0.9 74
2019-10-11 17:00:00 19.7 18 Oeste 37 Oeste 0 985.6 -1.4 71
2019-10-11 16:00:00 19.9 14 Oeste 22 Oeste 0 985.8 -1.6 73
2019-10-11 15:00:00 19.6 15 Oeste 24 Oeste 0 986.4 -1.3 75
2019-10-11 14:00:00 19.9 10 Sudoeste 22 Sudoeste 0 987 -0.9 73
2019-10-11 13:00:00 19.9 8 Sur 15 Sur 0 987.4 -0.3 63
2019-10-11 12:00:00 17.1 9 Sur 13 Sur 0 987.7 0.5 74
2019-10-11 11:00:00 15 9 Sur 17 Sudoeste 0 987.9 0.8 83
2019-10-11 10:00:00 13.9 9 Sur 11 Sudoeste 0 987.7 0.9 88
2019-10-11 09:00:00 12.1 5 Oeste 13 Sudoeste 0 987.2 0.4 96
2019-10-11 08:00:00 12.4 10 Sudoeste 13 Sudoeste 0 987.1 0.3 95
2019-10-11 07:00:00 13 10 Sudoeste 15 Sudoeste 0 986.8 -0.4 94
2019-10-11 06:00:00 14.2 6 Sudoeste 13 Sudoeste 0 986.8 -0.6 82
2019-10-11 05:00:00 13.2 4 Oeste 8 Oeste 0 986.8 -0.7 89
2019-10-11 04:00:00 13.5 2 Sudoeste 9 Sudoeste 0 987.2 -0.6 90
2019-10-11 03:00:00 14.2 0 Calma 5 Noroeste 0 987.4 -0.6 89
2019-10-11 02:00:00 14.5 3 Oeste 5 Oeste 0 987.5 -0.5 91
2019-10-11 01:00:00 15.4 0 Calma 9 Norte 0 987.8 -0.1 86
2019-10-11 00:00:00 15.2 6 Norte 11 Noroeste 0 988 0.1 92
2019-10-10 23:00:00 16 4 Norte 13 Norte 0 988 0.3 86
2019-10-10 22:00:00 16.6 8 Norte 13 Noroeste 0 987.9 0.2 82
2019-10-10 21:00:00 16.8 6 Noroeste 18 Oeste 0 987.9 -0.2 80
2019-10-10 20:00:00 18.3 8 Oeste 13 Oeste 0 987.7 -0.8 78
2019-10-10 19:00:00 20.9 4 Norte 9 Norte 0 987.7 -1.2 62
2019-10-10 18:00:00 21.3 7 Norte 15 Norte 0 988.1 -1.6 56
2019-10-10 17:00:00 22.6 5 Norte 11 Norte 0 988.5 -1.9 55
2019-10-10 16:00:00 22.5 5 Sudeste 15 Sur 0 988.9 -2 53
2019-10-10 15:00:00 20.6 11 Sur 18 Sur 0 989.7 -1.4 57
2019-10-10 14:00:00 20.1 11 Sur 17 Sur 0 990.4 -1 58
2019-10-10 13:00:00 19.8 9 Este 15 Nordeste 0 990.9 -0.4 59
2019-10-10 12:00:00 17.4 7 Este 15 Este 0 991.1 0 65
2019-10-10 11:00:00 15.8 7 Este 13 Este 0 991.4 0.6 69
2019-10-10 10:00:00 13 4 Nordeste 15 Norte 0 991.3 0.5 78
2019-10-10 09:00:00 10.6 6 Nordeste 17 Norte 0 991.1 0.3 84
2019-10-10 08:00:00 11.1 10 Norte 15 Noroeste 0 990.8 -0.3 76
2019-10-10 07:00:00 11.8 7 Norte 15 Norte 0 990.8 -0.7 71
2019-10-10 06:00:00 11.3 11 Norte 15 Norte 0 990.8 -1.1 76
2019-10-10 05:00:00 11.1 6 Norte 18 Norte 0 991.1 -1 81
2019-10-10 04:00:00 11.5 11 Norte 18 Norte 0 991.5 -1.1 80
2019-10-10 03:00:00 11.7 4 Este 21 Noroeste 0 991.9 -0.9 77
2019-10-10 02:00:00 12.2 5 Norte 22 Norte 0 992.1 -0.7 77
2019-10-10 01:00:00 12.9 14 Norte 24 Norte 0 992.6 -0.3 80
2019-10-10 00:00:00 13 15 Norte 26 Norte 0 992.8 0.3 84
2019-10-09 23:00:00 13.7 17 Norte 24 Norte 0 992.8 0.5 80
2019-10-09 22:00:00 14.1 7 Nordeste 17 Norte 0 992.9 1 85
2019-10-09 21:00:00 14.8 5 Nordeste 22 Noroeste 0 992.5 0.6 83
2019-10-09 20:00:00 16.3 13 Noroeste 28 Noroeste 0 992.3 0.1 70
2019-10-09 19:00:00 17.6 14 Noroeste 30 Norte 0 991.9 -0.6 64
2019-10-09 18:00:00 18.5 18 Norte 32 Norte 0 991.9 -0.8 57
2019-10-09 17:00:00 18.8 19 Norte 35 Norte 0 992.2 -0.9 52
2019-10-09 16:00:00 18.6 22 Norte 33 Norte 0 992.5 -1 53
2019-10-09 15:00:00 18.4 18 Norte 28 Norte 0 992.7 -0.9 59
2019-10-09 14:00:00 18 15 Norte 24 Norte 0 993.1 -0.4 61
2019-10-09 13:00:00 17.7 10 Nordeste 18 Norte 0 993.5 0.2 67
2019-10-09 12:00:00 16.4 8 Nordeste 15 Nordeste 0 993.6 1 75
2019-10-09 11:00:00 14.4 10 Norte 15 Norte 0 993.5 1.2 81
2019-10-09 10:00:00 13.2 3 Nordeste 15 Norte 0 993.3 1.2 90
2019-10-09 09:00:00 10.7 4 Norte 13 Norte 0 992.6 0.4 97
2019-10-09 08:00:00 11.7 8 Norte 15 Norte 0 992.3 0.3 93
2019-10-09 07:00:00 11.6 8 Norte 17 Norte 0 992.1 -0.1 94
2019-10-09 06:00:00 10.8 4 Norte 8 Norte 0 992.2 -0.2 100
2019-10-09 05:00:00 11.8 9 Norte 15 Norte 0 992 -0.2 92
2019-10-09 04:00:00 11.6 11 Norte 15 Norte 0 992.2 0.1 92
2019-10-09 03:00:00 12.4 13 Norte 18 Norte 0 992.4 0.4 89
2019-10-09 02:00:00 12.7 13 Norte 18 Norte 0 992.2 0.4 89
2019-10-09 01:00:00 12.3 8 Norte 15 Norte 0 992.1 0.7 96
2019-10-09 00:00:00 13.3 10 Norte 21 Norte 0 992 1.1 89
2019-10-08 23:00:00 13.7 11 Nordeste 26 Norte 0 991.8 1.6 93
2019-10-08 22:00:00 14.8 14 Norte 26 Norte 0 991.4 1.3 91
2019-10-08 21:00:00 15.3 14 Norte 28 Norte 0 990.9 1.1 89
2019-10-08 20:00:00 15.6 15 Norte 39 Norte 0 990.2 0.4 92
2019-10-08 19:00:00 16.4 22 Norte 32 Norte 0 990.1 0.3 96
2019-10-08 18:00:00 17.7 17 Norte 28 Norte 0 989.8 -0.1 90
2019-10-08 17:00:00 18 18 Norte 28 Noroeste 0 989.8 -0.3 90
2019-10-08 16:00:00 17.6 8 Nordeste 24 Sudoeste 0 989.8 -0.3 100
2019-10-08 15:00:00 18.2 17 Oeste 26 Oeste 0 989.9 -0.5 100
2019-10-08 14:00:00 18 16 Oeste 26 Oeste 0.4 990.1 0 100
2019-10-08 13:00:00 18.6 8 Sudoeste 15 Sudoeste 0.9 990.1 0.3 100
2019-10-08 12:00:00 18.3 2 Sudeste 15 Sudoeste 0.4 990.4 0.9 100
2019-10-08 11:00:00 17.2 11 Sudoeste 13 Sudoeste 0 990.1 0.6 99
2019-10-08 10:00:00 17.1 9 Sudoeste 17 Sudoeste 0 989.8 0.3 100
2019-10-08 09:00:00 17.3 10 Sudoeste 17 Oeste 0 989.5 0.3 100
2019-10-08 08:00:00 17 13 Sur 15 Sur 0 989.5 0.2 100
2019-10-08 07:00:00 17.2 8 Sur 13 Sudoeste 0 989.5 -0.2 100
2019-10-08 06:00:00 17.3 8 Sudoeste 11 Sudoeste 0 989.2 -1.1 100
2019-10-08 05:00:00 17.7 4 Oeste 8 Noroeste 0 989.3 -1.1 100
2019-10-08 04:00:00 17.6 3 Nordeste 8 Norte 0 989.7 -0.9 100
2019-10-08 03:00:00 16.8 2 Noroeste 8 Norte 0 990.3 -0.6 100
2019-10-08 02:00:00 17.1 5 Norte 9 Norte 0 990.4 -0.6 100
2019-10-08 01:00:00 16.2 8 Norte 11 Norte 0 990.6 0 100
2019-10-08 00:00:00 16.7 8 Norte 11 Norte 0 990.9 0.4 100
2019-10-07 23:00:00 16.8 7 Noroeste 11 Noroeste 0 991 0.4 100
2019-10-07 22:00:00 17.1 6 Noroeste 28 Oeste 0 990.6 0 97
2019-10-07 21:00:00 17.8 9 Oeste 21 Oeste 0 990.5 0.1 95
2019-10-07 20:00:00 18.5 14 Oeste 24 Oeste 0 990.6 0.1 91
2019-10-07 19:00:00 20.4 15 Oeste 22 Oeste 0 990.6 -0.3 79
2019-10-07 18:00:00 22.2 12 Oeste 22 Oeste 0 990.4 -0.8 63
2019-10-07 17:00:00 22.3 14 Oeste 24 Oeste 0 990.5 -1.3 59
2019-10-07 16:00:00 22.5 16 Sudoeste 24 Sudoeste 0 990.9 -0.9 59
2019-10-07 15:00:00 22.6 9 Nordeste 15 Nordeste 0 991.2 -0.4 64
2019-10-07 14:00:00 21.8 4 Nordeste 18 Sudoeste 0 991.8 0.1 69
2019-10-07 13:00:00 20 10 Sur 18 Sur 0 991.8 0.3 75
2019-10-07 12:00:00 16.6 10 Sur 15 Sur 0 991.6 0.1 88
2019-10-07 11:00:00 16.1 9 Sur 13 Sur 0 991.7 0.4 89
2019-10-07 10:00:00 13.5 6 Sudoeste 17 Sudoeste 0 991.5 0.4 99
2019-10-07 09:00:00 13.1 5 Oeste 15 Oeste 0 991.5 0.8 98
2019-10-07 08:00:00 13.3 5 Noroeste 13 Noroeste 0 991.3 0.5 98
2019-10-07 07:00:00 13 4 Noroeste 8 Noroeste 0 991.1 0.1 99
2019-10-07 06:00:00 13.1 3 Sudoeste 9 Sudoeste 0 990.7 -0.9 99
2019-10-07 05:00:00 13.4 4 Norte 5 Norte 0 990.8 -0.9 98
2019-10-07 04:00:00 13.3 3 Norte 5 Noroeste 0 991 -1 98
2019-10-07 03:00:00 13.6 3 Noroeste 8 Norte 0 991.6 -0.6 98
2019-10-07 02:00:00 13.9 8 Norte 11 Norte 0 991.7 -0.5 99
2019-10-07 01:00:00 13.8 4 Norte 8 Norte 0 992 -0.5 97
2019-10-07 00:00:00 14.2 5 Noroeste 17 Oeste 0 992.2 -0.2 97
2019-10-06 23:00:00 14.5 5 Noroeste 21 Oeste 0 992.2 0.1 95
2019-10-06 22:00:00 15.4 7 Oeste 22 Oeste 0 992.5 0.8 92
2019-10-06 21:00:00 15.7 15 Oeste 28 Oeste 0 992.4 1 95
2019-10-06 20:00:00 16.8 19 Oeste 28 Oeste 0 992.1 0.7 90
2019-10-06 19:00:00 19.3 15 Oeste 22 Sudoeste 0 991.7 -0.1 77
2019-10-06 18:00:00 21.1 12 Oeste 22 Oeste 0 991.4 -0.7 73
2019-10-06 17:00:00 21.7 11 Oeste 22 Oeste 0 991.4 -1.2 69
2019-10-06 16:00:00 21.4 10 Nordeste 17 Nordeste 0 991.8 -0.8 72
2019-10-06 15:00:00 20.1 6 Norte 15 Nordeste 0 992.1 -0.8 75
2019-10-06 14:00:00 21.3 5 Sur 17 Este 0 992.6 -0.2 69
2019-10-06 13:00:00 21.1 6 Sudeste 15 Este 0 992.6 0.1 71
2019-10-06 12:00:00 19.9 6 Este 11 Este 0 992.9 1.4 76
2019-10-06 11:00:00 17 4 Sudeste 8 Sudeste 0 992.8 1.9 82
2019-10-06 10:00:00 15.1 2 Nordeste 13 Oeste 0 992.5 1.8 95
2019-10-06 09:00:00 14.2 0 Calma 8 Sudoeste 0 991.5 0.6 95
2019-10-06 08:00:00 13.9 6 Sudoeste 9 Sudoeste 0 990.9 0.2 95
2019-10-06 07:00:00 14 2 Oeste 8 Sudoeste 0 990.7 -0.1 95
2019-10-06 06:00:00 14.3 7 Sudoeste 11 Sudoeste 0 990.9 -0.5 89
2019-10-06 05:00:00 14.1 8 Sudoeste 15 Sudoeste 0 990.7 -0.8 90
2019-10-06 04:00:00 13.9 10 Sudoeste 13 Sudoeste 0 990.8 -0.9 90
2019-10-06 03:00:00 13.5 7 Sudoeste 9 Sudoeste 0 991.4 -0.4 92
2019-10-06 02:00:00 14 0 Calma 9 Noroeste 0 991.5 0.3 90
2019-10-06 01:00:00 13.9 7 Norte 9 Norte 0 991.7 0.7 89
2019-10-06 00:00:00 13.5 6 Norte 9 Noroeste 0 991.8 1.2 90
2019-10-05 23:00:00 13.1 5 Noroeste 9 Oeste 0 991.2 1.3 91
2019-10-05 22:00:00 14 7 Noroeste 13 Noroeste 0 991 1.5 86
2019-10-05 21:00:00 15 11 Oeste 32 Noroeste 0 990.6 1.2 81
2019-10-05 20:00:00 16.6 10 Oeste 21 Oeste 0 989.9 0.6 76
2019-10-05 19:00:00 17.2 10 Oeste 24 Oeste 0 989.5 0.2 73
2019-10-05 18:00:00 18 15 Oeste 24 Oeste 0 989.4 -0.1 69
2019-10-05 17:00:00 18.9 7 Norte 21 Noroeste 0 989.3 -0.5 63
2019-10-05 16:00:00 19 10 Oeste 24 Oeste 0 989.3 -0.5 62
2019-10-05 15:00:00 17.9 8 Oeste 13 Oeste 0 989.5 -0.4 68
2019-10-05 14:00:00 17.3 3 Este 11 Oeste 0 989.8 0.3 74
2019-10-05 13:00:00 17.4 5 Este 11 Nordeste 0 989.8 0.7 77
2019-10-05 12:00:00 16.7 6 Nordeste 13 Nordeste 0 989.9 1.5 82
2019-10-05 11:00:00 15.2 5 Nordeste 9 Nordeste 0 989.5 1.6 94
2019-10-05 10:00:00 13.7 3 Norte 15 Oeste 0 989.1 1.6 97
2019-10-05 09:00:00 14 8 Oeste 13 Sudoeste 0 988.4 0.7 98
2019-10-05 08:00:00 14 7 Noroeste 17 Oeste 0 987.9 0.2 97
2019-10-05 07:00:00 13.6 0 Calma 9 Oeste 0 987.5 -0.8 98
2019-10-05 06:00:00 13.5 4 Este 5 Este 0 987.7 -1 98
2019-10-05 05:00:00 13.6 0 Calma 4 Oeste 0 987.7 -1 97
2019-10-05 04:00:00 13.6 2 Noroeste 5 Nordeste 0 988.3 -0.6 96
2019-10-05 03:00:00 13.7 3 Noroeste 15 Oeste 0 988.7 0 99
2019-10-05 02:00:00 13.5 7 Noroeste 11 Oeste 0 988.7 0 99
2019-10-05 01:00:00 13.3 9 Oeste 15 Oeste 0 988.9 0.3 95
2019-10-05 00:00:00 13.5 10 Oeste 13 Oeste 0 988.7 0 91
2019-10-04 23:00:00 14.3 6 Noroeste 26 Oeste 0 988.7 0.2 85
2019-10-04 22:00:00 14.7 13 Oeste 18 Oeste 0 988.6 0.5 85
2019-10-04 21:00:00 15.3 7 Oeste 28 Oeste 0 988.7 0.6 80
2019-10-04 20:00:00 16.7 15 Oeste 22 Oeste 0 988.5 -0.1 73
2019-10-04 19:00:00 19.1 12 Oeste 17 Oeste 0 988.1 -0.9 67
2019-10-04 18:00:00 19.4 5 Norte 24 Oeste 0 988.1 -1.2 72
2019-10-04 17:00:00 18.9 10 Noroeste 18 Oeste 0 988.6 -0.8 75
2019-10-04 16:00:00 18.9 11 Oeste 18 Oeste 0 989 -0.7 76
2019-10-04 15:00:00 19.2 11 Noroeste 17 Oeste 0 989.3 -1 75
2019-10-04 14:00:00 19.8 5 Norte 15 Nordeste 0 989.4 -0.7 70
2019-10-04 13:00:00 20.1 9 Nordeste 15 Nordeste 0 989.7 -0.1 71
2019-10-04 12:00:00 18.3 6 Nordeste 11 Nordeste 0 990.3 0.9 82
2019-10-04 11:00:00 17.4 3 Norte 8 Norte 0 990.1 1 85
2019-10-04 10:00:00 16 4 Norte 17 Norte 0 989.8 0.5 94
2019-10-04 09:00:00 15.5 9 Norte 15 Noroeste 0 989.4 0.2 93
2019-10-04 08:00:00 14.9 9 Norte 22 Norte 0.1 989.1 -0.1 98
2019-10-04 07:00:00 15.1 12 Norte 24 Norte 0.2 989.3 0.1 100
2019-10-04 06:00:00 16.5 3 Noroeste 13 Oeste 0 989.2 -0.4 100
2019-10-04 05:00:00 16.7 9 Oeste 15 Oeste 0 989.2 -0.8 100
2019-10-04 04:00:00 16.8 4 Norte 11 Oeste 0 989.2 -1 100
2019-10-04 03:00:00 16.9 6 Sudoeste 9 Sur 0 989.6 -0.9 100
2019-10-04 02:00:00 16.8 7 Sur 9 Sur 0 990 -0.4 100
2019-10-04 01:00:00 16.8 6 Sur 9 Sur 0.1 990.2 -0.3 100
2019-10-04 00:00:00 16.8 6 Sur 13 Sur 0.7 990.5 0.3 100
2019-10-03 23:00:00 16.8 8 Sur 15 Sur 1 990.4 0.3 100
2019-10-03 22:00:00 16.8 8 Sur 13 Sur 0.8 990.5 0.5 100
2019-10-03 21:00:00 17 5 Sur 13 Oeste 0.5 990.2 0.2 99
2019-10-03 20:00:00 16.9 8 Sudoeste 15 Sudoeste 0 990.1 -0.3 97
2019-10-03 19:00:00 19.2 13 Sur 18 Sur 0 990 -0.6 83
2019-10-03 18:00:00 19.4 10 Sur 17 Sur 0 990 -0.8 82
2019-10-03 17:00:00 19.7 7 Sur 17 Sur 0 990.4 -1.3 76
2019-10-03 16:00:00 18.9 13 Sur 18 Sur 0 990.6 -1.3 75
2019-10-03 15:00:00 18.6 11 Sur 17 Sudoeste 0 990.8 -0.9 75
2019-10-03 14:00:00 17.4 9 Sur 18 Sur 0 991.7 0.1 75
2019-10-03 13:00:00 15.9 9 Sur 18 Sudoeste 0 991.9 0.8 83
2019-10-03 12:00:00 14.5 8 Sur 18 Sur 0 991.7 0.9 94
2019-10-03 11:00:00 12.2 14 Sudoeste 24 Sudoeste 0 991.6 1 100
2019-10-03 10:00:00 11.8 16 Sudoeste 21 Sudoeste 0 991.1 0.8 100
2019-10-03 09:00:00 11.5 10 Sudoeste 22 Sudoeste 0 990.8 0.4 100
2019-10-03 08:00:00 11.4 9 Sudoeste 15 Sudoeste 0 990.6 0.1 100
2019-10-03 07:00:00 11.8 11 Sudoeste 22 Sudoeste 0 990.3 0.1 97
2019-10-03 06:00:00 12 7 Sur 15 Sudoeste 0 990.4 0.3 97
2019-10-03 05:00:00 12.3 8 Sudoeste 13 Sudoeste 0 990.5 0.4 98
2019-10-03 04:00:00 12.5 4 Sur 13 Oeste 0 990.2 0 95
2019-10-03 03:00:00 12.9 10 Sudoeste 13 Sudoeste 0 990.1 -0.3 94
2019-10-03 02:00:00 12.9 6 Sudoeste 9 Oeste 0 990.1 -0.6 95
2019-10-03 01:00:00 13.1 5 Sudoeste 9 Sudoeste 0 990.2 -0.8 94
2019-10-03 00:00:00 14.1 6 Noroeste 13 Norte 0 990.4 -0.7 89
2019-10-02 23:00:00 13.9 7 Norte 11 Norte 0 990.7 -0.4 93
2019-10-02 22:00:00 13.9 5 Noroeste 24 Oeste 0 991 0 89
2019-10-02 21:00:00 15.2 9 Oeste 17 Oeste 0 991.1 0.3 82
2019-10-02 20:00:00 16.2 12 Oeste 18 Oeste 0 991.1 0.1 80
2019-10-02 19:00:00 17.7 14 Oeste 26 Oeste 0 991 -0.3 72
2019-10-02 18:00:00 18.9 13 Oeste 18 Oeste 0 990.8 -0.6 68
2019-10-02 17:00:00 19.8 10 Norte 24 Norte 0 991 -0.8 60
2019-10-02 16:00:00 19.5 12 Norte 22 Noroeste 0 991.3 -0.7 59
2019-10-02 15:00:00 19.6 9 Nordeste 22 Norte 0 991.4 -0.8 59
2019-10-02 14:00:00 18.4 10 Norte 18 Nordeste 0 991.8 -0.4 65
2019-10-02 13:00:00 17.8 7 Norte 18 Este 0 992 0.5 63
2019-10-02 12:00:00 18.6 6 Nordeste 17 Este 0 992.2 1.5 61
2019-10-02 11:00:00 16.7 5 Nordeste 13 Noroeste 0 992.2 1.9 80
2019-10-02 10:00:00 14.5 4 Norte 8 Norte 0 991.5 1.3 96
2019-10-02 09:00:00 13.8 3 Oeste 9 Oeste 0 990.7 0.7 95
2019-10-02 08:00:00 13.5 0 Calma 11 Oeste 0 990.3 -0.1 100
2019-10-02 07:00:00 13.8 7 Oeste 13 Oeste 0 990.2 -0.4 95
2019-10-02 06:00:00 14.4 4 Noroeste 9 Norte 0 990 -0.5 92
2019-10-02 05:00:00 15.2 5 Norte 15 Noroeste 0 990.4 -0.4 89
2019-10-02 04:00:00 15.4 10 Oeste 15 Oeste 0 990.6 -0.3 93
2019-10-02 03:00:00 15.4 4 Oeste 11 Oeste 0 990.5 -0.1 93
2019-10-02 02:00:00 15.3 8 Oeste 11 Oeste 0 990.8 0 93
2019-10-02 01:00:00 15.7 5 Oeste 15 Oeste 0 990.9 0.8 93
2019-10-02 00:00:00 15.8 9 Sudoeste 21 Sudoeste 0 990.6 1.2 89
2019-10-01 23:00:00 16 7 Oeste 17 Noroeste 0 990.8 1.6 87
2019-10-01 22:00:00 16.2 6 Noroeste 24 Oeste 0 990.1 1.5 92
2019-10-01 21:00:00 16.2 7 Oeste 21 Oeste 0 989.4 1 90
2019-10-01 20:00:00 17.2 7 Oeste 22 Oeste 0 989.2 1 85
2019-10-01 19:00:00 17.7 11 Oeste 24 Oeste 0 988.6 0.3 85
2019-10-01 18:00:00 18.3 12 Oeste 28 Oeste 0 988.4 0.1 84
2019-10-01 17:00:00 19.7 13 Sudoeste 24 Sudoeste 0.1 988.2 -0.1 78
2019-10-01 16:00:00 18.7 14 Oeste 26 Oeste 0 988.3 -0.1 78
2019-10-01 15:00:00 19 15 Noroeste 24 Sudoeste 0 988.3 0.1 78
2019-10-01 14:00:00 19.3 12 Oeste 21 Sudoeste 0 988.3 0.6 80
2019-10-01 13:00:00 18 14 Oeste 22 Oeste 0 988.4 1.4 90
2019-10-01 12:00:00 18.6 10 Oeste 21 Oeste 0 988.2 1.8 90
2019-10-01 11:00:00 17.8 6 Sudoeste 22 Oeste 0 987.7 1.8 92
2019-10-01 10:00:00 17.2 8 Oeste 21 Oeste 0 987 1.5 96
2019-10-01 09:00:00 16.9 11 Oeste 28 Oeste 0 986.4 1.3 97
2019-10-01 08:00:00 17.1 12 Oeste 22 Oeste 0 985.9 0.9 99
2019-10-01 07:00:00 17.2 14 Oeste 30 Oeste 1.2 985.5 -0.3 100
2019-10-01 06:00:00 16.2 9 Sur 21 Sur 1.7 985.1 -1.1 99
2019-10-01 05:00:00 16.7 11 Sur 21 Sur 0 985 -1.4 96
2019-10-01 04:00:00 17 7 Sur 13 Sur 0 985.8 -0.7 97
2019-10-01 03:00:00 17.2 10 Sur 13 Sur 0 986.2 -0.5 97
2019-10-01 02:00:00 17.2 6 Sudoeste 13 Sur 0 986.4 -0.4 92
2019-10-01 01:00:00 17.5 5 Sudoeste 13 Sur 0 986.5 0 91
2019-10-01 00:00:00 17.9 5 Sudoeste 15 Sur 0 986.7 0.5 87
2019-09-30 23:00:00 18.1 11 Sudoeste 17 Sudoeste 0 986.8 0.8 85
2019-09-30 22:00:00 17.9 8 Oeste 15 Oeste 0 986.5 0.1 94
2019-09-30 21:00:00 17.9 8 Oeste 24 Oeste 0 986.2 -0.3 92
2019-09-30 20:00:00 18.8 14 Oeste 30 Oeste 0 986 -0.7 87
2019-09-30 19:00:00 19.1 17 Oeste 32 Oeste 0 986.4 -0.5 88
2019-09-30 18:00:00 20 19 Oeste 32 Oeste 0 986.5 -0.8 83
2019-09-30 17:00:00 20.1 17 Oeste 33 Oeste 0 986.7 -1.1 89
2019-09-30 16:00:00 19.8 18 Oeste 28 Oeste 0 986.9 -0.9 93
2019-09-30 15:00:00 20.3 16 Oeste 26 Oeste 0 987.3 -0.8 92
2019-09-30 14:00:00 19.9 13 Oeste 21 Oeste 0 987.8 -0.3 93
2019-09-30 13:00:00 20.6 8 Sur 17 Sudoeste 0 987.8 -0.1 93
2019-09-30 12:00:00 19.2 10 Sur 15 Sur 0 988.1 0.4 99
2019-09-30 11:00:00 18.3 7 Sur 13 Sur 0.4 988.1 0.6 100
2019-09-30 10:00:00 17.7 10 Sur 13 Sur 0.2 987.9 0.3 100
2019-09-30 09:00:00 17.6 11 Sur 17 Sur 0.1 987.7 0.1 100
2019-09-30 08:00:00 17.5 9 Sur 15 Sur 0 987.5 -0.2 100
2019-09-30 07:00:00 17.5 9 Sur 17 Sur 0 987.6 -0.7 100
2019-09-30 06:00:00 17.5 8 Sur 15 Sur 0 987.6 -1.3 100
2019-09-30 05:00:00 17.5 9 Sur 18 Sur 0 987.7 -1.3 100
2019-09-30 04:00:00 17.6 10 Sur 18 Sur 0 988.3 -1 100
2019-09-30 03:00:00 17.6 9 Sur 18 Sur 0 988.9 -0.6 100
2019-09-30 02:00:00 17.6 13 Sur 21 Sur 0.3 989 -0.7 100
2019-09-30 01:00:00 17.6 13 Sur 18 Sur 1 989.3 -0.3 100
2019-09-30 00:00:00 17.6 10 Sur 15 Sur 0.8 989.5 0.3 100
2019-09-29 23:00:00 17.6 11 Sur 18 Sur 1.9 989.7 0.7 100
2019-09-29 22:00:00 17.6 9 Sur 18 Sur 1.5 989.6 0.8 100
2019-09-29 21:00:00 17.6 11 Sur 17 Sur 4 989.2 0.3 100
2019-09-29 20:00:00 17.7 11 Sur 21 Sur 2.7 989 -0.2 100
2019-09-29 19:00:00 17.9 11 Sur 21 Sur 1.2 988.8 -0.4 99
2019-09-29 18:00:00 17.9 8 Sur 18 Sur 0.4 988.9 -0.6 99
2019-09-29 17:00:00 17.7 11 Sur 18 Sudeste 0.1 989.2 -0.5 99
2019-09-29 16:00:00 17.6 12 Sur 24 Sur 1.2 989.2 -0.5 100
2019-09-29 15:00:00 17.5 14 Sur 24 Sur 1.1 989.5 -0.5 99
2019-09-29 14:00:00 16.6 14 Sur 24 Sur 0 989.7 0.1 99
2019-09-29 13:00:00 15.7 12 Sur 26 Sur 0 989.7 0.3 99
2019-09-29 12:00:00 15.2 18 Sur 28 Sur 0 990 1 99
2019-09-29 11:00:00 13.9 14 Sur 26 Sur 0 989.6 0.9 100
2019-09-29 10:00:00 13.3 18 Sur 32 Sur 0 989.4 1 100
2019-09-29 09:00:00 13.1 15 Sur 24 Sur 0 989 0.2 99
2019-09-29 08:00:00 12.5 12 Sudoeste 22 Sur 0 988.7 0 97
2019-09-29 07:00:00 12.9 16 Sur 21 Sur 0 988.4 -0.9 94
2019-09-29 06:00:00 13.8 7 Sudoeste 13 Sur 0 988.8 -0.8 89
2019-09-29 05:00:00 13.1 11 Sudoeste 21 Sur 0 988.7 -1.2 91
2019-09-29 04:00:00 12.5 15 Sudoeste 21 Sur 0 989.3 -0.5 93
2019-09-29 03:00:00 12.3 8 Sudoeste 11 Sudoeste 0 989.6 -0.3 92
2019-09-29 02:00:00 12 4 Oeste 9 Oeste 0 989.9 0.3 93
2019-09-29 01:00:00 12 2 Noroeste 9 Noroeste 0 989.8 0.1 91
2019-09-29 00:00:00 12 3 Noroeste 11 Oeste 0 989.9 0.5 90
2019-09-28 23:00:00 12 6 Oeste 11 Oeste 0 989.6 0.5 91
2019-09-28 22:00:00 13.7 3 Sur 18 Oeste 0 989.7 0.5 88
2019-09-28 21:00:00 14.8 10 Oeste 18 Oeste 0 989.4 -0.1 81
2019-09-28 20:00:00 16.5 13 Oeste 24 Oeste 0 989.1 -0.6 69
2019-09-28 19:00:00 18.5 13 Oeste 24 Oeste 0 989.2 -0.5 63
2019-09-28 18:00:00 19 18 Oeste 26 Oeste 0 989.5 -0.7 61
2019-09-28 17:00:00 19.6 18 Oeste 30 Oeste 0 989.7 -1.3 62
2019-09-28 16:00:00 20.4 12 Oeste 24 Sudoeste 0 989.7 -1.8 60
2019-09-28 15:00:00 20.6 7 Oeste 21 Sur 0 990.2 -1.8 60
2019-09-28 14:00:00 20.1 5 Sur 15 Sur 0 991 -1.1 63
2019-09-28 13:00:00 19 7 Este 13 Este 0 991.5 0 70
2019-09-28 12:00:00 16.4 8 Sur 13 Sudoeste 0 992 0.9 80
2019-09-28 11:00:00 14.2 6 Sudeste 21 Oeste 0 992.1 1.2 97
2019-09-28 10:00:00 11 9 Sudoeste 21 Sudoeste 0 991.5 0.5 100
2019-09-28 09:00:00 10 4 Oeste 11 Oeste 0 991.1 -0.3 96
2019-09-28 08:00:00 10.3 5 Oeste 11 Oeste 0 990.9 -0.6 95
2019-09-28 07:00:00 10.8 4 Norte -- -- 0 991 -0.7 93
2019-09-28 06:00:00 10.3 3 Oeste 5 Oeste 0 991.4 -0.4 96
2019-09-28 05:00:00 11 3 Norte 11 Norte 0 991.5 -0.6 96
2019-09-28 04:00:00 12.5 10 Norte 13 Norte 0 991.7 -0.6 93
2019-09-28 03:00:00 12.5 8 Norte 9 Norte 0 991.8 -0.6 100
2019-09-28 02:00:00 12.3 5 Norte 11 Norte 0 992.1 -0.1 100
2019-09-28 01:00:00 13.6 8 Norte 11 Norte 0 992.3 0.2 94
2019-09-28 00:00:00 -- 8 Norte 17 Oeste 0 992.4 0.5 --
2019-09-27 23:00:00 13.4 5 Noroeste 15 Oeste 0 992.2 0.4 96
2019-09-27 22:00:00 13.9 8 Oeste 21 Oeste 0 992.1 0.4 96
2019-09-27 21:00:00 15.5 12 Oeste 24 Sudoeste 0 991.9 0.3 90
2019-09-27 20:00:00 16.8 10 Oeste 15 Oeste 0 991.8 0.1 81
2019-09-27 19:00:00 17.9 6 Noroeste 18 Sudoeste 0 991.7 0 80
2019-09-27 18:00:00 18.7 9 Oeste 17 Sudoeste 0 991.6 -0.2 79
2019-09-27 17:00:00 18.5 12 Oeste 21 Oeste 0 991.7 -0.4 80
2019-09-27 16:00:00 18.3 8 Oeste 18 Oeste 0 991.7 -0.3 87
2019-09-27 15:00:00 18 8 Oeste 21 Sudoeste 0 991.8 0 93
2019-09-27 14:00:00 17.2 14 Sudoeste 26 Sudoeste 0 992.1 0.6 100
2019-09-27 13:00:00 15.6 2 Este 11 Sur 0.1 992 1.1 100
2019-09-27 12:00:00 15.1 9 Sur 17 Sur 1.4 991.8 1.1 100
2019-09-27 11:00:00 14.7 10 Sur 18 Sur 1.2 991.5 1.2 99
2019-09-27 10:00:00 14.4 10 Sudoeste 18 Sur 0.1 990.9 0.6 98
2019-09-27 09:00:00 14.1 10 Sudoeste 21 Sur 0.1 990.7 0.2 96
2019-09-27 08:00:00 14.2 14 Sudoeste 21 Sur 0 990.3 -0.5 91
2019-09-27 07:00:00 14.4 14 Sur 21 Sur 0 990.3 -1 88
2019-09-27 06:00:00 14.4 16 Sur 22 Sur 0 990.5 -0.8 89
2019-09-27 05:00:00 14.5 14 Sudoeste 18 Sur 0 990.8 -0.9 91
2019-09-27 04:00:00 15.3 9 Sur 17 Sur 0 991.3 -0.7 87
2019-09-27 03:00:00 15.8 13 Sur 17 Sur 0 991.3 -0.6 84
2019-09-27 02:00:00 15.9 8 Sur 11 Sur 0 991.7 0.1 83
2019-09-27 01:00:00 15 6 Sudoeste 11 Oeste 0 992 0.3 88
2019-09-27 00:00:00 14.8 7 Sudoeste 13 Sudoeste 0 991.9 0.5 87
2019-09-26 23:00:00 15.3 5 Sur 8 Sur 0 991.6 0.4 88
2019-09-26 22:00:00 17 0 Calma 21 Oeste 0 991.7 0.8 79
2019-09-26 21:00:00 17.2 5 Oeste 17 Oeste 0 991.4 0.7 76
2019-09-26 20:00:00 17.2 11 Oeste 26 Oeste 0 991.2 0.3 76
2019-09-26 19:00:00 18.7 16 Oeste 24 Oeste 0 990.9 0 66
2019-09-26 18:00:00 19.6 15 Oeste 32 Oeste 0 990.7 -0.2 64
2019-09-26 17:00:00 19.6 23 Oeste 33 Oeste 0 990.9 -0.2 62
2019-09-26 16:00:00 20.3 17 Oeste 30 Oeste 0 990.9 -0.8 59
2019-09-26 15:00:00 20.6 13 Oeste 24 Oeste 0 990.9 -0.8 59
2019-09-26 14:00:00 19.7 14 Oeste 26 Oeste 0 991.1 0 65
2019-09-26 13:00:00 19.9 14 Oeste 22 Oeste 0 991.7 1.2 63
2019-09-26 12:00:00 18.9 6 Sur 15 Sur 0 991.7 1.5 75
2019-09-26 11:00:00 16.8 8 Sur 13 Sudoeste 0 991.1 1.2 87
2019-09-26 10:00:00 15.2 9 Sudoeste 13 Sudoeste 0 990.5 0.7 95
2019-09-26 09:00:00 14.7 12 Sur 17 Sur 0 990.2 0.2 99
2019-09-26 08:00:00 14.3 10 Sudoeste 15 Sur 0 989.9 -0.3 99
2019-09-26 07:00:00 14.8 10 Sudoeste 15 Sudoeste 0 989.8 -0.6 98
2019-09-26 06:00:00 14.9 9 Sur 13 Sur 0 990 -0.5 99
2019-09-26 05:00:00 14.8 9 Sur 13 Sur 0 990.2 -0.7 99
2019-09-26 04:00:00 15.1 9 Sudoeste 13 Sudoeste 0 990.4 -0.8 99
2019-09-26 03:00:00 15.1 9 Sur 13 Sur 0 990.5 -0.6 98
2019-09-26 02:00:00 15.5 7 Sudoeste 13 Sur 0 990.9 -0.1 97
2019-09-26 01:00:00 15.8 10 Sur -- -- 0 991.2 0.4 94
2019-09-26 00:00:00 15.8 8 Oeste 18 Oeste 0 991.1 0.6 91
2019-09-25 23:00:00 16.2 8 Sudoeste 13 Sudoeste 0 991 0.7 89
2019-09-25 22:00:00 16.4 10 Oeste 21 Oeste 0 990.8 0.4 90
2019-09-25 21:00:00 16.6 11 Sudoeste 22 Oeste 0 990.5 0.1 86
2019-09-25 20:00:00 16.7 15 Oeste 26 Oeste 0 990.3 -0.1 87
2019-09-25 19:00:00 17.3 21 Oeste 30 Oeste 0 990.4 -0.4 79
2019-09-25 18:00:00 18.8 18 Oeste 30 Oeste 0 990.4 -0.8 70
2019-09-25 17:00:00 19.2 16 Oeste 28 Oeste 0 990.4 -1.1 67
2019-09-25 16:00:00 19.5 13 Oeste 24 Sudoeste 0 990.8 -- 65
2019-09-25 15:00:00 19 15 Oeste 26 Sudoeste 0 991.2 -0.7 67
2019-09-25 14:00:00 18.7 17 Oeste 24 Oeste 0 991.5 -0.1 72
2019-09-25 13:00:00 -- -- -- -- -- -- -- -- --
2019-09-25 12:00:00 17 7 Sudoeste 15 Sudoeste 0 991.9 1.2 84
2019-09-25 11:00:00 15.8 6 Sur 11 Sur 0 991.6 1.2 95
2019-09-25 10:00:00 14.4 6 Sudoeste 11 Sur 0.2 991 0.8 100
2019-09-25 09:00:00 14.2 8 Sur 15 Sur 0.2 990.7 0.5 100
2019-09-25 08:00:00 14.3 5 Sur 13 Sur 0.4 990.4 0.1 100
2019-09-25 07:00:00 14.2 10 Sur 13 Sur 0 990.2 -0.4 99
2019-09-25 06:00:00 14.6 8 Sudoeste 9 Sudoeste 0 990.2 -0.7 98
2019-09-25 05:00:00 14.4 5 Sur 9 Sur 0 990.3 -0.5 97
2019-09-25 04:00:00 14.4 6 Sur 9 Sur 0 990.6 -0.6 97
2019-09-25 03:00:00 14.8 4 Sudoeste 9 Sudoeste 0 990.9 -0.2 96
2019-09-25 02:00:00 15.3 6 Sudoeste 9 Sudoeste 0 990.8 -0.3 97
2019-09-25 01:00:00 15.3 5 Oeste 13 Sudoeste 0 991.2 0.4 94
2019-09-25 00:00:00 15.4 4 Sudoeste 13 Sudoeste 0 991.1 0.9 96
2019-09-24 23:00:00 15.5 6 Sudoeste 13 Oeste 0 991.1 1.1 95
2019-09-24 22:00:00 15.9 9 Oeste 32 Oeste 0 990.8 1.1 91
2019-09-24 21:00:00 16.3 5 Oeste 15 Sudoeste 0 990.2 0.7 89
2019-09-24 20:00:00 16.9 6 Oeste 22 Oeste 0 990 0.5 84
2019-09-24 19:00:00 17.6 10 Oeste 35 Oeste 0 989.7 0.3 80
2019-09-24 18:00:00 17.8 13 Oeste 24 Oeste 0 989.5 0.4 80
2019-09-24 17:00:00 18.9 17 Oeste 32 Oeste 0 989.5 0.2 72
2019-09-24 16:00:00 19.6 14 Oeste 32 Oeste 0 989.4 0.2 67
2019-09-24 15:00:00 18.5 14 Oeste 28 Oeste 0 989.1 0.1 90
2019-09-24 14:00:00 19 14 Sudoeste 28 Oeste 0 989.3 0.8 82
2019-09-24 13:00:00 18.3 14 Oeste 26 Sudoeste 0 989.2 1.6 89
2019-09-24 12:00:00 18.2 12 Sudoeste 21 Sudoeste 0 989 1.9 93
2019-09-24 11:00:00 17.4 11 Sudoeste 18 Sudoeste 0.1 988.5 1.8 97
2019-09-24 10:00:00 17.1 8 Oeste 22 Oeste 0 987.6 1.2 100
2019-09-24 09:00:00 17.2 14 Oeste 26 Sudoeste 0.8 987.1 0.8 100
2019-09-24 08:00:00 17.7 14 Sudoeste 33 Sudoeste 0.1 986.7 0.5 100
2019-09-24 07:00:00 18.3 18 Sudoeste 45 Sudoeste 0.1 986.4 0 98
2019-09-24 06:00:00 17.8 21 Sur 39 Sur 1 986.3 -0.1 100
2019-09-24 05:00:00 17.2 16 Sur 32 Sur 5.8 986.2 -1.3 100
2019-09-24 04:00:00 16.8 19 Sur 39 Sudoeste 5 986.4 -1.5 100
2019-09-24 03:00:00 16.6 20 Sur 42 Sur 0 986.4 -1.9 99
2019-09-24 02:00:00 16.4 22 Sur 45 Sur 0 987.5 -1 99
2019-09-24 01:00:00 16.5 29 Sur 46 Sur 0 987.9 -0.6 97
2019-09-24 00:00:00 16.5 31 Sur 55 Sur 0 988.3 -0.1 95
2019-09-23 23:00:00 17.4 27 Sur 48 Sur 0 988.5 0 88
2019-09-23 22:00:00 17.5 24 Sur 35 Sur 0 988.5 -0.1 87
2019-09-23 21:00:00 17.6 18 Sur 32 Sur 0 988.4 -0.8 85
2019-09-23 20:00:00 18 18 Sur 35 Sur 0 988.5 -0.6 83
2019-09-23 19:00:00 18.2 18 Sur 42 Sur 0 988.6 -0.5 79
2019-09-23 18:00:00 18.7 30 Sur 48 Sur 0 989.2 0.1 74
2019-09-23 17:00:00 19.2 35 Sur 48 Sur 0 989.1 -0.3 71
2019-09-23 16:00:00 19.5 30 Sur 41 Sur 0 989.1 -0.4 71
2019-09-23 15:00:00 19.1 23 Sur 45 Sur 0 989.1 -0.7 75
2019-09-23 14:00:00 19.4 23 Sur 39 Sur 0 989.4 -- 72
2019-09-23 13:00:00 18.2 23 Sur 41 Sur 0 989.5 -- 77
2019-09-23 12:00:00 17.5 18 Sur -- -- -- 989.8 -- 82
2019-09-23 11:00:00 -- -- -- -- -- -- -- -- --
2019-09-23 10:00:00 -- -- -- -- -- -- -- -- --
2019-09-23 09:00:00 -- -- -- -- -- -- -- -- --
2019-09-23 08:00:00 -- -- -- -- -- -- -- -- --
2019-09-23 07:00:00 -- -- -- -- -- -- -- -- --
2019-09-23 06:00:00 -- -- -- -- -- -- -- -- --
2019-09-23 05:00:00 -- -- -- -- -- -- -- -- --
2019-09-23 04:00:00 -- -- -- -- -- -- -- -- --
2019-09-23 03:00:00 -- -- -- -- -- -- -- -- --
2019-09-23 02:00:00 -- -- -- -- -- -- -- -- --
2019-09-23 01:00:00 -- -- -- -- -- -- -- -- --
2019-09-23 00:00:00 -- -- -- -- -- -- -- -- --
2019-09-22 23:00:00 -- -- -- -- -- -- -- -- --
2019-09-22 22:00:00 -- -- -- -- -- -- -- -- --
2019-09-22 21:00:00 -- -- -- -- -- -- -- -- --
2019-09-22 20:00:00 -- -- -- -- -- -- -- -- --
2019-09-22 19:00:00 -- -- -- -- -- -- -- -- --
2019-09-22 18:00:00 -- -- -- -- -- -- -- -- --
2019-09-22 17:00:00 -- -- -- -- -- -- -- -- --
2019-09-22 16:00:00 19.2 24 Sudoeste 35 Oeste 0 986.2 0.3 66
2019-09-22 15:00:00 19.2 18 Sudoeste 30 Sudoeste 0 986.1 0.6 67
2019-09-22 14:00:00 18.1 17 Sudoeste 30 Sudoeste 0 986.1 1.1 70
2019-09-22 13:00:00 18 19 Sudoeste 32 Oeste 0 985.9 1.6 75
2019-09-22 12:00:00 17.3 17 Sudoeste 28 Oeste 0 985.5 2.2 78
2019-09-22 11:00:00 17.6 10 Sur 18 Sudeste 0 985 2 85
2019-09-22 10:00:00 14.7 6 Sur 13 Sur 0 984.3 1.8 97
2019-09-22 09:00:00 13.9 6 Sur 13 Sudoeste 0 983.3 1.2 98
2019-09-22 08:00:00 13.8 6 Sudoeste 11 Sudoeste 0 983 1.2 99
2019-09-22 07:00:00 13.1 6 Sudoeste 13 Sur 0 982.5 1 99
2019-09-22 06:00:00 13.4 5 Sudoeste 11 Sur 0 982.1 1.1 97
2019-09-22 05:00:00 14.1 8 Sudoeste 15 Sudoeste 0 981.8 1.2 92
2019-09-22 04:00:00 15 10 Sudoeste 18 Sudoeste 0 981.5 1.1 92
2019-09-22 03:00:00 15.5 10 Sudoeste 32 Sudoeste 0 981 0.9 91
2019-09-22 02:00:00 16.1 16 Sudoeste 35 Sudoeste 0 980.6 0.7 91
2019-09-22 01:00:00 16.1 18 Sudoeste 28 Sudoeste 0.7 980.4 1.2 91
2019-09-22 00:00:00 16.1 13 Sur 24 Sur 0.1 980.1 1.4 93
2019-09-21 23:00:00 16.6 13 Sur 22 Sur 0 979.9 1.4 87
2019-09-21 22:00:00 16.3 13 Sur 24 Sur 0 979.2 1.3 91
2019-09-21 21:00:00 16.3 15 Sur 32 Sudoeste 0 978.7 1.4 90
2019-09-21 20:00:00 16.7 22 Sudoeste 32 Sudoeste 0 978.5 2.3 88
2019-09-21 19:00:00 16.9 21 Sudoeste 32 Sudoeste 0 977.9 1.5 87
2019-09-21 18:00:00 16 13 Sudoeste 26 Sudoeste 1.9 977.3 0.6 99
2019-09-21 17:00:00 15.3 17 Sudoeste 42 Oeste 5.9 976.2 -1 99
2019-09-21 16:00:00 17.3 20 Sur 37 Sur 0.6 976.4 -1 100
2019-09-21 15:00:00 16.9 22 Sur 45 Sur 0.6 976.7 -0.9 100
2019-09-21 14:00:00 17.1 26 Sur 42 Sur 0.7 977.2 -0.1 99
2019-09-21 13:00:00 17.3 33 Sur 52 Sur 0 977.4 0.1 98
2019-09-21 12:00:00 17.4 29 Sur 46 Sur 1.7 977.6 0.5 99
2019-09-21 11:00:00 17 20 Sur 32 Sur 0.9 977.3 0.3 100
2019-09-21 10:00:00 16.7 21 Sur 32 Sur 2.3 977.3 0.1 100
2019-09-21 09:00:00 16.6 17 Sur 30 Sur 0.1 977.1 -0.1 99
2019-09-21 08:00:00 16.7 18 Sur 32 Sur 0 977 -0.8 96
2019-09-21 07:00:00 17.2 17 Sudoeste 26 Sur 0 977.2 -1.8 92
2019-09-21 06:00:00 17.6 12 Sur 26 Sur 0 977.2 -2.7 85
2019-09-21 05:00:00 16.7 13 Sur 18 Sur 0 977.8 -2.5 87
2019-09-21 04:00:00 16.7 10 Sudoeste 22 Sur 0 979 -1.5 88
2019-09-21 03:00:00 16.8 15 Sur 24 Sur 0 979.9 -0.8 86
2019-09-21 02:00:00 16.5 13 Sur 17 Sur 0 980.3 -0.8 89
2019-09-21 01:00:00 16.2 11 Sudoeste 17 Sur 0 980.5 -0.9 91
2019-09-21 00:00:00 16.4 9 Sudoeste 17 Sur 0 980.7 -0.8 89
2019-09-20 23:00:00 16.5 12 Sur 17 Sur 0 981.1 -0.6 89
2019-09-20 22:00:00 16.7 6 Sur 13 Sudoeste 0 981.4 -0.5 90
2019-09-20 21:00:00 16.4 4 Noroeste 9 Norte 0 981.5 -0.6 93
2019-09-20 20:00:00 17.1 9 Norte 13 Norte 0 981.7 -0.6 90
2019-09-20 19:00:00 19.6 5 Oeste 15 Oeste 0 981.9 -0.8 77
2019-09-20 18:00:00 19.3 12 Oeste 21 Oeste 0 982.1 -1.2 76
2019-09-20 17:00:00 19.6 13 Oeste 28 Sudoeste 0 982.3 -1.5 76
2019-09-20 16:00:00 21.1 5 Sudoeste 18 Sur 0 982.7 -1.4 70
2019-09-20 15:00:00 19.3 3 Sur 18 Este 0 983.3 -0.9 79
2019-09-20 14:00:00 17.6 8 Sur 17 Sur 0 983.8 -0.2 86
2019-09-20 13:00:00 17.1 8 Sur 18 Sur 0 984.1 0.7 88
2019-09-20 12:00:00 16.4 6 Sur 17 Sur 0 984.2 0.9 95
2019-09-20 11:00:00 16.1 9 Sur 17 Sur 0 984 0.8 95
2019-09-20 10:00:00 15.3 7 Sur 13 Sur 0 983.4 -0.2 100
2019-09-20 09:00:00 14.9 6 Nordeste 11 Norte 0 983.3 -0.5 100
2019-09-20 08:00:00 15.1 0 Calma 9 Sur 0 983.2 -1.1 99
2019-09-20 07:00:00 15 6 Sudoeste 13 Sur 0 983.6 -1.1 100
2019-09-20 06:00:00 14.9 9 Sur 13 Sur 0 983.8 -1.1 100
2019-09-20 05:00:00 14.9 7 Oeste 9 Oeste 0 984.3 -1 100
2019-09-20 04:00:00 15.1 6 Oeste 11 Sur 0 984.7 -1 99
2019-09-20 03:00:00 15.2 3 Este 8 Este 0 984.9 -1.3 98
2019-09-20 02:00:00 15.1 0 Calma 5 Sur 0 985.3 -1 98
2019-09-20 01:00:00 15.1 3 Sudeste 9 Sudoeste 0 985.7 -0.3 98
2019-09-20 00:00:00 14.8 8 Sudoeste 13 Oeste 0 986.2 0.6 99